Urb Santa Maria Mayor, Puerto Rico
Current Conditions -  °F | °C
As of 4:53 PM on Saturday 22 Nov 2014 (Local Time) from TJNR Reporting Station
Scattered Clouds Scattered Clouds  
Wind Chill: 80°   Ceiling: Unl
Heat Index: 85°   Visibility: 10mi
Dew Point: 74°   Wind: 6mph
Humidity: 81%   Direction: 60°ENE
Pressure: 29.99"   Gusts: NA
Location:  18.1494°N, 65.8294°W
Report Text: TJNR 222053Z AUTO 06005KT 10SM FEW049 SCT060 27/23 A2999 RMK AO2 SLP155 60002 T02670233 56004 $
Loading
Personal Weather Stations






























Interactive Weather Map New forecast layout! Learn more

10-Day Weather Forecast

Advertisements
Track Severe Weather on mobile